sensor_id;sensor_type;location;lat;lon;timestamp;P1;durP1;ratioP1;P2;durP2;ratioP2
45944;SDS011;31655;48.972;10.686;2023-12-07T00:00:32;51.45;;;23.85;;
45944;SDS011;31655;48.972;10.686;2023-12-07T00:02:57;58.90;;;26.67;;
45944;SDS011;31655;48.972;10.686;2023-12-07T00:05:24;55.90;;;25.00;;
45944;SDS011;31655;48.972;10.686;2023-12-07T00:07:50;57.38;;;24.35;;
45944;SDS011;31655;48.972;10.686;2023-12-07T00:10:15;55.28;;;26.63;;
45944;SDS011;31655;48.972;10.686;2023-12-07T00:12:41;52.80;;;24.58;;
45944;SDS011;31655;48.972;10.686;2023-12-07T00:15:07;54.85;;;25.27;;
45944;SDS011;31655;48.972;10.686;2023-12-07T00:17:33;58.15;;;27.58;;
45944;SDS011;31655;48.972;10.686;2023-12-07T00:19:59;58.83;;;25.33;;
45944;SDS011;31655;48.972;10.686;2023-12-07T00:22:24;54.88;;;26.38;;
45944;SDS011;31655;48.972;10.686;2023-12-07T00:24:51;52.75;;;25.77;;
45944;SDS011;31655;48.972;10.686;2023-12-07T00:27:20;51.95;;;24.13;;
45944;SDS011;31655;48.972;10.686;2023-12-07T00:29:46;55.47;;;26.67;;
45944;SDS011;31655;48.972;10.686;2023-12-07T00:32:12;52.33;;;25.50;;
45944;SDS011;31655;48.972;10.686;2023-12-07T00:34:37;55.28;;;26.75;;
45944;SDS011;31655;48.972;10.686;2023-12-07T00:37:03;50.92;;;26.05;;
45944;SDS011;31655;48.972;10.686;2023-12-07T00:39:32;54.00;;;25.00;;
45944;SDS011;31655;48.972;10.686;2023-12-07T00:42:01;48.83;;;25.40;;
45944;SDS011;31655;48.972;10.686;2023-12-07T00:44:28;64.35;;;29.85;;
45944;SDS011;31655;48.972;10.686;2023-12-07T00:46:53;54.72;;;26.98;;
45944;SDS011;31655;48.972;10.686;2023-12-07T00:49:20;58.60;;;25.77;;
45944;SDS011;31655;48.972;10.686;2023-12-07T00:51:45;63.95;;;29.48;;
45944;SDS011;31655;48.972;10.686;2023-12-07T00:54:12;65.15;;;28.40;;
45944;SDS011;31655;48.972;10.686;2023-12-07T00:56:38;59.33;;;26.85;;
45944;SDS011;31655;48.972;10.686;2023-12-07T00:59:04;57.15;;;26.38;;
45944;SDS011;31655;48.972;10.686;2023-12-07T01:01:29;55.03;;;27.17;;
45944;SDS011;31655;48.972;10.686;2023-12-07T01:03:55;57.80;;;26.60;;
45944;SDS011;31655;48.972;10.686;2023-12-07T01:06:20;60.28;;;27.88;;
45944;SDS011;31655;48.972;10.686;2023-12-07T01:08:46;51.58;;;25.73;;
45944;SDS011;31655;48.972;10.686;2023-12-07T01:11:11;53.35;;;27.02;;
45944;SDS011;31655;48.972;10.686;2023-12-07T01:13:37;59.35;;;26.33;;
45944;SDS011;31655;48.972;10.686;2023-12-07T01:16:02;53.25;;;26.63;;
45944;SDS011;31655;48.972;10.686;2023-12-07T01:18:28;59.55;;;29.08;;
45944;SDS011;31655;48.972;10.686;2023-12-07T01:20:54;60.88;;;28.58;;
45944;SDS011;31655;48.972;10.686;2023-12-07T01:23:19;57.53;;;27.40;;
45944;SDS011;31655;48.972;10.686;2023-12-07T01:25:45;56.45;;;26.63;;
45944;SDS011;31655;48.972;10.686;2023-12-07T01:28:10;59.78;;;25.08;;
45944;SDS011;31655;48.972;10.686;2023-12-07T01:30:36;56.42;;;27.23;;
45944;SDS011;31655;48.972;10.686;2023-12-07T01:33:01;59.15;;;28.02;;
45944;SDS011;31655;48.972;10.686;2023-12-07T01:35:27;61.20;;;27.13;;
45944;SDS011;31655;48.972;10.686;2023-12-07T01:37:53;71.35;;;28.15;;
45944;SDS011;31655;48.972;10.686;2023-12-07T01:40:19;57.75;;;28.35;;
45944;SDS011;31655;48.972;10.686;2023-12-07T01:42:57;62.53;;;27.60;;
45944;SDS011;31655;48.972;10.686;2023-12-07T01:45:25;54.22;;;28.10;;
45944;SDS011;31655;48.972;10.686;2023-12-07T01:47:51;58.58;;;27.38;;
45944;SDS011;31655;48.972;10.686;2023-12-07T01:50:25;69.10;;;30.35;;
45944;SDS011;31655;48.972;10.686;2023-12-07T01:52:57;52.90;;;25.90;;
45944;SDS011;31655;48.972;10.686;2023-12-07T01:57:52;51.90;;;25.33;;
45944;SDS011;31655;48.972;10.686;2023-12-07T02:00:18;54.63;;;25.95;;
45944;SDS011;31655;48.972;10.686;2023-12-07T02:02:44;56.28;;;27.17;;
45944;SDS011;31655;48.972;10.686;2023-12-07T02:05:12;58.67;;;28.30;;
45944;SDS011;31655;48.972;10.686;2023-12-07T02:07:39;61.17;;;26.50;;
45944;SDS011;31655;48.972;10.686;2023-12-07T02:10:06;53.67;;;26.40;;
45944;SDS011;31655;48.972;10.686;2023-12-07T02:12:36;57.90;;;27.42;;
45944;SDS011;31655;48.972;10.686;2023-12-07T02:15:02;63.50;;;27.70;;
45944;SDS011;31655;48.972;10.686;2023-12-07T02:17:32;58.63;;;28.27;;
45944;SDS011;31655;48.972;10.686;2023-12-07T02:20:10;55.17;;;27.25;;
45944;SDS011;31655;48.972;10.686;2023-12-07T02:22:39;56.92;;;26.48;;
45944;SDS011;31655;48.972;10.686;2023-12-07T02:25:09;50.35;;;24.45;;
45944;SDS011;31655;48.972;10.686;2023-12-07T02:27:41;64.13;;;27.30;;
45944;SDS011;31655;48.972;10.686;2023-12-07T02:30:10;57.90;;;26.48;;
45944;SDS011;31655;48.972;10.686;2023-12-07T02:32:37;53.70;;;26.20;;
45944;SDS011;31655;48.972;10.686;2023-12-07T02:35:04;54.33;;;25.55;;
45944;SDS011;31655;48.972;10.686;2023-12-07T02:37:32;57.42;;;27.35;;
45944;SDS011;31655;48.972;10.686;2023-12-07T02:40:03;63.53;;;28.50;;
45944;SDS011;31655;48.972;10.686;2023-12-07T02:42:30;58.33;;;26.10;;
45944;SDS011;31655;48.972;10.686;2023-12-07T02:44:57;62.92;;;28.92;;
45944;SDS011;31655;48.972;10.686;2023-12-07T02:47:25;60.25;;;29.20;;
45944;SDS011;31655;48.972;10.686;2023-12-07T02:49:51;60.83;;;29.33;;
45944;SDS011;31655;48.972;10.686;2023-12-07T02:52:16;58.70;;;26.80;;
45944;SDS011;31655;48.972;10.686;2023-12-07T02:54:42;57.67;;;29.05;;
45944;SDS011;31655;48.972;10.686;2023-12-07T02:57:07;56.97;;;27.63;;
45944;SDS011;31655;48.972;10.686;2023-12-07T02:59:33;61.17;;;29.02;;
45944;SDS011;31655;48.972;10.686;2023-12-07T03:01:59;64.75;;;28.67;;
45944;SDS011;31655;48.972;10.686;2023-12-07T03:04:24;53.50;;;25.30;;
45944;SDS011;31655;48.972;10.686;2023-12-07T03:06:50;58.85;;;28.17;;
45944;SDS011;31655;48.972;10.686;2023-12-07T03:09:15;59.15;;;25.75;;
45944;SDS011;31655;48.972;10.686;2023-12-07T03:11:41;53.95;;;26.70;;
45944;SDS011;31655;48.972;10.686;2023-12-07T03:14:08;58.80;;;28.17;;
45944;SDS011;31655;48.972;10.686;2023-12-07T03:16:33;51.30;;;26.48;;
45944;SDS011;31655;48.972;10.686;2023-12-07T03:19:03;56.95;;;26.52;;
45944;SDS011;31655;48.972;10.686;2023-12-07T03:21:29;51.83;;;26.55;;
45944;SDS011;31655;48.972;10.686;2023-12-07T03:23:54;55.22;;;26.42;;
45944;SDS011;31655;48.972;10.686;2023-12-07T03:26:20;55.67;;;27.95;;
45944;SDS011;31655;48.972;10.686;2023-12-07T03:28:46;56.45;;;27.92;;
45944;SDS011;31655;48.972;10.686;2023-12-07T03:31:11;64.38;;;28.98;;
45944;SDS011;31655;48.972;10.686;2023-12-07T03:33:37;108.97;;;48.05;;
45944;SDS011;31655;48.972;10.686;2023-12-07T03:36:03;164.70;;;61.35;;
45944;SDS011;31655;48.972;10.686;2023-12-07T03:38:29;253.52;;;89.43;;
45944;SDS011;31655;48.972;10.686;2023-12-07T03:40:55;215.38;;;87.47;;
45944;SDS011;31655;48.972;10.686;2023-12-07T03:43:21;86.45;;;41.83;;
45944;SDS011;31655;48.972;10.686;2023-12-07T03:45:46;75.57;;;35.60;;
45944;SDS011;31655;48.972;10.686;2023-12-07T03:48:12;69.93;;;32.35;;
45944;SDS011;31655;48.972;10.686;2023-12-07T03:50:38;76.32;;;36.28;;
45944;SDS011;31655;48.972;10.686;2023-12-07T03:53:03;62.00;;;30.83;;
45944;SDS011;31655;48.972;10.686;2023-12-07T03:55:29;60.03;;;27.83;;
45944;SDS011;31655;48.972;10.686;2023-12-07T03:57:55;66.78;;;28.65;;
45944;SDS011;31655;48.972;10.686;2023-12-07T04:00:21;50.42;;;25.23;;
45944;SDS011;31655;48.972;10.686;2023-12-07T04:02:47;63.08;;;29.35;;
45944;SDS011;31655;48.972;10.686;2023-12-07T04:05:13;64.47;;;28.60;;
45944;SDS011;31655;48.972;10.686;2023-12-07T04:07:39;56.90;;;28.40;;
45944;SDS011;31655;48.972;10.686;2023-12-07T04:10:05;59.10;;;27.13;;
45944;SDS011;31655;48.972;10.686;2023-12-07T04:12:31;59.55;;;28.23;;
45944;SDS011;31655;48.972;10.686;2023-12-07T04:14:57;53.05;;;26.25;;
45944;SDS011;31655;48.972;10.686;2023-12-07T04:17:23;52.55;;;27.55;;
45944;SDS011;31655;48.972;10.686;2023-12-07T04:19:48;56.35;;;27.65;;
45944;SDS011;31655;48.972;10.686;2023-12-07T04:22:14;54.75;;;25.60;;
45944;SDS011;31655;48.972;10.686;2023-12-07T04:24:39;66.32;;;30.33;;
45944;SDS011;31655;48.972;10.686;2023-12-07T04:27:05;67.75;;;30.35;;
45944;SDS011;31655;48.972;10.686;2023-12-07T04:29:30;53.70;;;27.30;;
45944;SDS011;31655;48.972;10.686;2023-12-07T04:31:57;58.13;;;26.02;;
45944;SDS011;31655;48.972;10.686;2023-12-07T04:34:22;48.72;;;25.80;;
45944;SDS011;31655;48.972;10.686;2023-12-07T04:36:49;53.22;;;27.67;;
45944;SDS011;31655;48.972;10.686;2023-12-07T04:39:14;53.55;;;27.00;;
45944;SDS011;31655;48.972;10.686;2023-12-07T04:41:40;48.13;;;24.90;;
45944;SDS011;31655;48.972;10.686;2023-12-07T04:44:06;53.72;;;26.90;;
45944;SDS011;31655;48.972;10.686;2023-12-07T04:46:31;57.95;;;30.92;;
45944;SDS011;31655;48.972;10.686;2023-12-07T04:48:57;58.83;;;29.13;;
45944;SDS011;31655;48.972;10.686;2023-12-07T04:51:23;61.53;;;28.55;;
45944;SDS011;31655;48.972;10.686;2023-12-07T04:53:48;52.00;;;26.67;;
45944;SDS011;31655;48.972;10.686;2023-12-07T04:56:14;54.50;;;26.50;;
45944;SDS011;31655;48.972;10.686;2023-12-07T04:58:39;52.35;;;26.25;;
45944;SDS011;31655;48.972;10.686;2023-12-07T05:01:05;48.90;;;24.17;;
45944;SDS011;31655;48.972;10.686;2023-12-07T05:03:31;52.90;;;25.75;;
45944;SDS011;31655;48.972;10.686;2023-12-07T05:05:57;46.17;;;24.30;;
45944;SDS011;31655;48.972;10.686;2023-12-07T05:08:23;46.53;;;23.52;;
45944;SDS011;31655;48.972;10.686;2023-12-07T05:10:48;48.20;;;23.95;;
45944;SDS011;31655;48.972;10.686;2023-12-07T05:13:14;54.15;;;26.10;;
45944;SDS011;31655;48.972;10.686;2023-12-07T05:15:39;50.95;;;24.92;;
45944;SDS011;31655;48.972;10.686;2023-12-07T05:18:05;48.92;;;24.48;;
45944;SDS011;31655;48.972;10.686;2023-12-07T05:20:30;53.88;;;26.33;;
45944;SDS011;31655;48.972;10.686;2023-12-07T05:22:56;59.83;;;27.13;;
45944;SDS011;31655;48.972;10.686;2023-12-07T05:25:21;58.22;;;26.48;;
45944;SDS011;31655;48.972;10.686;2023-12-07T05:27:47;59.00;;;26.65;;
45944;SDS011;31655;48.972;10.686;2023-12-07T05:30:14;52.42;;;26.67;;
45944;SDS011;31655;48.972;10.686;2023-12-07T05:32:41;62.15;;;28.00;;
45944;SDS011;31655;48.972;10.686;2023-12-07T05:35:06;55.97;;;26.75;;
45944;SDS011;31655;48.972;10.686;2023-12-07T05:37:32;57.28;;;26.27;;
45944;SDS011;31655;48.972;10.686;2023-12-07T05:39:58;51.20;;;26.00;;
45944;SDS011;31655;48.972;10.686;2023-12-07T05:42:23;50.47;;;25.50;;
45944;SDS011;31655;48.972;10.686;2023-12-07T05:44:49;55.25;;;26.98;;
45944;SDS011;31655;48.972;10.686;2023-12-07T05:47:14;53.05;;;25.05;;
45944;SDS011;31655;48.972;10.686;2023-12-07T05:49:40;46.80;;;24.75;;
45944;SDS011;31655;48.972;10.686;2023-12-07T05:52:05;53.58;;;26.10;;
45944;SDS011;31655;48.972;10.686;2023-12-07T05:54:31;48.38;;;23.85;;
45944;SDS011;31655;48.972;10.686;2023-12-07T05:56:56;42.67;;;24.13;;
45944;SDS011;31655;48.972;10.686;2023-12-07T05:59:22;46.28;;;23.08;;
45944;SDS011;31655;48.972;10.686;2023-12-07T06:01:47;45.08;;;23.35;;
45944;SDS011;31655;48.972;10.686;2023-12-07T06:04:16;47.00;;;25.02;;
45944;SDS011;31655;48.972;10.686;2023-12-07T06:06:42;42.47;;;23.63;;
45944;SDS011;31655;48.972;10.686;2023-12-07T06:09:07;48.47;;;24.88;;
45944;SDS011;31655;48.972;10.686;2023-12-07T06:11:33;42.80;;;22.25;;
45944;SDS011;31655;48.972;10.686;2023-12-07T06:13:59;40.50;;;21.58;;
45944;SDS011;31655;48.972;10.686;2023-12-07T06:16:25;43.55;;;22.05;;
45944;SDS011;31655;48.972;10.686;2023-12-07T06:18:51;43.83;;;23.73;;
45944;SDS011;31655;48.972;10.686;2023-12-07T06:21:17;43.70;;;23.27;;
45944;SDS011;31655;48.972;10.686;2023-12-07T06:23:42;38.92;;;21.85;;
45944;SDS011;31655;48.972;10.686;2023-12-07T06:26:08;42.38;;;23.13;;
45944;SDS011;31655;48.972;10.686;2023-12-07T06:28:33;40.17;;;22.00;;
45944;SDS011;31655;48.972;10.686;2023-12-07T06:31:06;38.08;;;20.63;;
45944;SDS011;31655;48.972;10.686;2023-12-07T06:33:33;41.38;;;22.10;;
45944;SDS011;31655;48.972;10.686;2023-12-07T06:36:00;37.85;;;19.88;;
45944;SDS011;31655;48.972;10.686;2023-12-07T06:38:28;41.78;;;20.70;;
45944;SDS011;31655;48.972;10.686;2023-12-07T06:40:53;43.83;;;23.00;;
45944;SDS011;31655;48.972;10.686;2023-12-07T06:43:19;40.58;;;21.70;;
45944;SDS011;31655;48.972;10.686;2023-12-07T06:45:44;41.50;;;22.27;;
45944;SDS011;31655;48.972;10.686;2023-12-07T06:48:11;35.15;;;20.92;;
45944;SDS011;31655;48.972;10.686;2023-12-07T06:50:38;39.47;;;20.67;;
45944;SDS011;31655;48.972;10.686;2023-12-07T06:53:04;41.30;;;20.90;;
45944;SDS011;31655;48.972;10.686;2023-12-07T06:55:30;38.35;;;19.92;;
45944;SDS011;31655;48.972;10.686;2023-12-07T06:57:55;39.60;;;19.38;;
45944;SDS011;31655;48.972;10.686;2023-12-07T07:00:21;41.13;;;21.75;;
45944;SDS011;31655;48.972;10.686;2023-12-07T07:02:46;40.20;;;20.70;;
45944;SDS011;31655;48.972;10.686;2023-12-07T07:05:12;35.05;;;20.23;;
45944;SDS011;31655;48.972;10.686;2023-12-07T07:07:38;40.35;;;19.65;;
45944;SDS011;31655;48.972;10.686;2023-12-07T07:10:04;39.22;;;20.90;;
45944;SDS011;31655;48.972;10.686;2023-12-07T07:12:30;40.38;;;20.77;;
45944;SDS011;31655;48.972;10.686;2023-12-07T07:14:55;35.72;;;19.15;;
45944;SDS011;31655;48.972;10.686;2023-12-07T07:17:21;36.08;;;20.88;;
45944;SDS011;31655;48.972;10.686;2023-12-07T07:19:47;36.70;;;18.80;;
45944;SDS011;31655;48.972;10.686;2023-12-07T07:22:12;38.25;;;18.90;;
45944;SDS011;31655;48.972;10.686;2023-12-07T07:24:38;31.23;;;18.83;;
45944;SDS011;31655;48.972;10.686;2023-12-07T07:27:04;31.45;;;17.13;;
45944;SDS011;31655;48.972;10.686;2023-12-07T07:29:30;34.83;;;19.10;;
45944;SDS011;31655;48.972;10.686;2023-12-07T07:31:57;35.80;;;18.63;;
45944;SDS011;31655;48.972;10.686;2023-12-07T07:34:22;31.63;;;16.45;;
45944;SDS011;31655;48.972;10.686;2023-12-07T07:36:48;27.10;;;14.98;;
45944;SDS011;31655;48.972;10.686;2023-12-07T07:39:15;30.35;;;15.85;;
45944;SDS011;31655;48.972;10.686;2023-12-07T07:41:40;29.48;;;16.65;;
45944;SDS011;31655;48.972;10.686;2023-12-07T07:44:06;24.48;;;14.82;;
45944;SDS011;31655;48.972;10.686;2023-12-07T07:46:32;26.02;;;14.68;;
45944;SDS011;31655;48.972;10.686;2023-12-07T07:48:58;26.50;;;14.55;;
45944;SDS011;31655;48.972;10.686;2023-12-07T07:51:23;29.00;;;15.05;;
45944;SDS011;31655;48.972;10.686;2023-12-07T07:53:49;25.13;;;14.77;;
45944;SDS011;31655;48.972;10.686;2023-12-07T07:56:14;25.05;;;13.52;;
45944;SDS011;31655;48.972;10.686;2023-12-07T07:58:40;20.95;;;12.45;;
45944;SDS011;31655;48.972;10.686;2023-12-07T08:01:05;23.35;;;13.73;;
45944;SDS011;31655;48.972;10.686;2023-12-07T08:03:32;24.17;;;15.05;;
45944;SDS011;31655;48.972;10.686;2023-12-07T08:05:57;29.63;;;16.30;;
45944;SDS011;31655;48.972;10.686;2023-12-07T08:08:23;28.63;;;17.27;;
45944;SDS011;31655;48.972;10.686;2023-12-07T08:10:51;28.77;;;15.57;;
45944;SDS011;31655;48.972;10.686;2023-12-07T08:13:16;33.70;;;18.13;;
45944;SDS011;31655;48.972;10.686;2023-12-07T08:15:42;35.58;;;17.40;;
45944;SDS011;31655;48.972;10.686;2023-12-07T08:18:07;35.30;;;18.70;;
45944;SDS011;31655;48.972;10.686;2023-12-07T08:20:34;29.73;;;18.92;;
45944;SDS011;31655;48.972;10.686;2023-12-07T08:22:59;33.55;;;17.92;;
45944;SDS011;31655;48.972;10.686;2023-12-07T08:25:25;32.30;;;18.95;;
45944;SDS011;31655;48.972;10.686;2023-12-07T08:27:51;31.80;;;18.08;;
45944;SDS011;31655;48.972;10.686;2023-12-07T08:30:16;31.60;;;18.95;;
45944;SDS011;31655;48.972;10.686;2023-12-07T08:32:43;29.85;;;17.17;;
45944;SDS011;31655;48.972;10.686;2023-12-07T08:35:09;25.08;;;15.40;;
45944;SDS011;31655;48.972;10.686;2023-12-07T08:37:36;30.25;;;16.77;;
45944;SDS011;31655;48.972;10.686;2023-12-07T08:40:02;26.38;;;15.70;;
45944;SDS011;31655;48.972;10.686;2023-12-07T08:42:28;33.05;;;17.38;;
45944;SDS011;31655;48.972;10.686;2023-12-07T08:44:56;25.40;;;15.32;;
45944;SDS011;31655;48.972;10.686;2023-12-07T08:47:22;25.33;;;13.70;;
45944;SDS011;31655;48.972;10.686;2023-12-07T08:49:47;20.27;;;11.15;;
45944;SDS011;31655;48.972;10.686;2023-12-07T08:52:13;23.58;;;13.02;;
45944;SDS011;31655;48.972;10.686;2023-12-07T08:54:38;19.98;;;12.00;;
45944;SDS011;31655;48.972;10.686;2023-12-07T08:57:04;17.08;;;10.18;;
45944;SDS011;31655;48.972;10.686;2023-12-07T08:59:29;19.20;;;11.68;;
45944;SDS011;31655;48.972;10.686;2023-12-07T09:01:56;17.50;;;10.90;;
45944;SDS011;31655;48.972;10.686;2023-12-07T09:04:21;18.80;;;11.05;;
45944;SDS011;31655;48.972;10.686;2023-12-07T09:06:47;16.95;;;9.90;;
45944;SDS011;31655;48.972;10.686;2023-12-07T09:09:12;13.98;;;8.75;;
45944;SDS011;31655;48.972;10.686;2023-12-07T09:11:38;18.38;;;9.38;;
45944;SDS011;31655;48.972;10.686;2023-12-07T09:14:03;10.20;;;8.20;;
45944;SDS011;31655;48.972;10.686;2023-12-07T09:16:29;15.20;;;8.05;;
45944;SDS011;31655;48.972;10.686;2023-12-07T09:18:54;13.05;;;8.73;;
45944;SDS011;31655;48.972;10.686;2023-12-07T09:21:20;16.38;;;9.60;;
45944;SDS011;31655;48.972;10.686;2023-12-07T09:23:46;15.32;;;8.85;;
45944;SDS011;31655;48.972;10.686;2023-12-07T09:26:12;16.88;;;9.02;;
45944;SDS011;31655;48.972;10.686;2023-12-07T09:28:37;16.08;;;10.07;;
45944;SDS011;31655;48.972;10.686;2023-12-07T09:31:04;18.52;;;9.90;;
45944;SDS011;31655;48.972;10.686;2023-12-07T09:33:30;17.02;;;9.32;;
45944;SDS011;31655;48.972;10.686;2023-12-07T09:35:55;14.43;;;8.05;;
45944;SDS011;31655;48.972;10.686;2023-12-07T09:38:21;11.75;;;8.13;;
45944;SDS011;31655;48.972;10.686;2023-12-07T09:40:46;28.10;;;11.05;;
45944;SDS011;31655;48.972;10.686;2023-12-07T09:43:17;17.23;;;10.27;;
45944;SDS011;31655;48.972;10.686;2023-12-07T09:45:43;21.92;;;11.88;;
45944;SDS011;31655;48.972;10.686;2023-12-07T09:48:09;21.80;;;11.23;;
45944;SDS011;31655;48.972;10.686;2023-12-07T09:50:35;15.63;;;9.55;;
45944;SDS011;31655;48.972;10.686;2023-12-07T09:53:02;13.70;;;9.30;;
45944;SDS011;31655;48.972;10.686;2023-12-07T09:55:27;18.88;;;10.95;;
45944;SDS011;31655;48.972;10.686;2023-12-07T09:57:53;13.25;;;8.00;;
45944;SDS011;31655;48.972;10.686;2023-12-07T10:00:21;15.63;;;10.27;;
45944;SDS011;31655;48.972;10.686;2023-12-07T10:02:47;12.32;;;8.32;;
45944;SDS011;31655;48.972;10.686;2023-12-07T10:05:13;15.50;;;9.90;;
45944;SDS011;31655;48.972;10.686;2023-12-07T10:07:42;16.15;;;9.98;;
45944;SDS011;31655;48.972;10.686;2023-12-07T10:10:08;21.02;;;11.90;;
45944;SDS011;31655;48.972;10.686;2023-12-07T10:12:44;18.45;;;10.57;;
45944;SDS011;31655;48.972;10.686;2023-12-07T10:15:16;15.35;;;11.30;;
45944;SDS011;31655;48.972;10.686;2023-12-07T10:17:50;18.67;;;12.43;;
45944;SDS011;31655;48.972;10.686;2023-12-07T10:20:27;20.73;;;13.60;;
45944;SDS011;31655;48.972;10.686;2023-12-07T10:23:00;21.65;;;12.50;;
45944;SDS011;31655;48.972;10.686;2023-12-07T10:25:30;19.42;;;12.20;;
45944;SDS011;31655;48.972;10.686;2023-12-07T10:27:56;17.70;;;12.10;;
45944;SDS011;31655;48.972;10.686;2023-12-07T10:30:22;22.85;;;14.27;;
45944;SDS011;31655;48.972;10.686;2023-12-07T10:32:50;21.63;;;13.05;;
45944;SDS011;31655;48.972;10.686;2023-12-07T10:35:17;20.60;;;12.70;;
45944;SDS011;31655;48.972;10.686;2023-12-07T10:37:44;17.27;;;12.18;;
45944;SDS011;31655;48.972;10.686;2023-12-07T10:40:10;23.25;;;13.85;;
45944;SDS011;31655;48.972;10.686;2023-12-07T10:42:36;22.10;;;13.18;;
45944;SDS011;31655;48.972;10.686;2023-12-07T10:45:05;23.80;;;14.27;;
45944;SDS011;31655;48.972;10.686;2023-12-07T10:47:35;24.45;;;13.98;;
45944;SDS011;31655;48.972;10.686;2023-12-07T10:50:03;22.48;;;14.07;;
45944;SDS011;31655;48.972;10.686;2023-12-07T10:52:36;21.98;;;13.85;;
45944;SDS011;31655;48.972;10.686;2023-12-07T10:55:07;24.98;;;14.20;;
45944;SDS011;31655;48.972;10.686;2023-12-07T10:57:40;21.80;;;13.63;;
45944;SDS011;31655;48.972;10.686;2023-12-07T11:00:07;28.83;;;13.65;;
45944;SDS011;31655;48.972;10.686;2023-12-07T11:02:34;22.48;;;14.20;;
45944;SDS011;31655;48.972;10.686;2023-12-07T11:05:01;21.17;;;13.80;;
45944;SDS011;31655;48.972;10.686;2023-12-07T11:07:28;23.48;;;14.57;;
45944;SDS011;31655;48.972;10.686;2023-12-07T11:10:20;21.40;;;13.15;;
45944;SDS011;31655;48.972;10.686;2023-12-07T11:15:23;24.42;;;15.30;;
45944;SDS011;31655;48.972;10.686;2023-12-07T11:17:49;22.90;;;13.10;;
45944;SDS011;31655;48.972;10.686;2023-12-07T11:20:20;19.67;;;12.30;;
45944;SDS011;31655;48.972;10.686;2023-12-07T11:22:47;18.85;;;11.57;;
45944;SDS011;31655;48.972;10.686;2023-12-07T11:25:14;17.80;;;11.32;;
45944;SDS011;31655;48.972;10.686;2023-12-07T11:27:40;16.98;;;10.98;;
45944;SDS011;31655;48.972;10.686;2023-12-07T11:30:11;17.63;;;11.15;;
45944;SDS011;31655;48.972;10.686;2023-12-07T11:32:39;17.20;;;12.00;;
45944;SDS011;31655;48.972;10.686;2023-12-07T11:35:05;24.20;;;13.10;;
45944;SDS011;31655;48.972;10.686;2023-12-07T11:40:25;23.45;;;15.02;;
45944;SDS011;31655;48.972;10.686;2023-12-07T11:42:52;21.05;;;12.32;;
45944;SDS011;31655;48.972;10.686;2023-12-07T11:45:40;25.58;;;12.68;;
45944;SDS011;31655;48.972;10.686;2023-12-07T11:48:14;20.73;;;13.75;;
45944;SDS011;31655;48.972;10.686;2023-12-07T11:50:55;25.10;;;13.32;;
45944;SDS011;31655;48.972;10.686;2023-12-07T11:53:28;24.23;;;13.52;;
45944;SDS011;31655;48.972;10.686;2023-12-07T11:55:58;24.15;;;13.55;;
45944;SDS011;31655;48.972;10.686;2023-12-07T11:58:25;26.27;;;14.43;;
45944;SDS011;31655;48.972;10.686;2023-12-07T12:00:51;23.92;;;14.23;;
45944;SDS011;31655;48.972;10.686;2023-12-07T12:03:18;26.60;;;15.50;;
45944;SDS011;31655;48.972;10.686;2023-12-07T12:05:45;28.27;;;15.85;;
45944;SDS011;31655;48.972;10.686;2023-12-07T12:08:11;29.15;;;15.38;;
45944;SDS011;31655;48.972;10.686;2023-12-07T12:10:37;32.03;;;17.60;;
45944;SDS011;31655;48.972;10.686;2023-12-07T12:13:03;26.80;;;15.48;;
45944;SDS011;31655;48.972;10.686;2023-12-07T12:15:29;29.58;;;15.70;;
45944;SDS011;31655;48.972;10.686;2023-12-07T12:17:58;23.42;;;15.75;;
45944;SDS011;31655;48.972;10.686;2023-12-07T12:20:25;28.15;;;16.50;;
45944;SDS011;31655;48.972;10.686;2023-12-07T12:22:51;28.42;;;17.08;;
45944;SDS011;31655;48.972;10.686;2023-12-07T12:25:23;31.02;;;18.02;;
45944;SDS011;31655;48.972;10.686;2023-12-07T12:27:51;31.67;;;16.98;;
45944;SDS011;31655;48.972;10.686;2023-12-07T12:30:18;28.17;;;17.27;;
45944;SDS011;31655;48.972;10.686;2023-12-07T12:32:45;31.33;;;17.63;;
45944;SDS011;31655;48.972;10.686;2023-12-07T12:35:11;23.15;;;15.23;;
45944;SDS011;31655;48.972;10.686;2023-12-07T12:37:39;25.25;;;15.25;;
45944;SDS011;31655;48.972;10.686;2023-12-07T12:40:12;27.38;;;15.52;;
45944;SDS011;31655;48.972;10.686;2023-12-07T12:42:40;22.45;;;15.18;;
45944;SDS011;31655;48.972;10.686;2023-12-07T12:45:08;24.75;;;14.98;;
45944;SDS011;31655;48.972;10.686;2023-12-07T12:47:36;24.63;;;14.40;;
45944;SDS011;31655;48.972;10.686;2023-12-07T12:50:01;19.13;;;12.25;;
45944;SDS011;31655;48.972;10.686;2023-12-07T12:52:29;25.30;;;15.48;;
45944;SDS011;31655;48.972;10.686;2023-12-07T12:54:56;31.75;;;15.85;;
45944;SDS011;31655;48.972;10.686;2023-12-07T12:57:22;26.35;;;14.75;;
45944;SDS011;31655;48.972;10.686;2023-12-07T12:59:48;26.27;;;13.07;;
45944;SDS011;31655;48.972;10.686;2023-12-07T13:02:15;22.67;;;13.20;;
45944;SDS011;31655;48.972;10.686;2023-12-07T13:04:41;27.05;;;14.65;;
45944;SDS011;31655;48.972;10.686;2023-12-07T13:07:06;37.83;;;16.05;;
45944;SDS011;31655;48.972;10.686;2023-12-07T13:09:32;22.92;;;13.15;;
45944;SDS011;31655;48.972;10.686;2023-12-07T13:11:58;24.50;;;13.77;;
45944;SDS011;31655;48.972;10.686;2023-12-07T13:14:26;20.85;;;14.02;;
45944;SDS011;31655;48.972;10.686;2023-12-07T13:16:52;24.88;;;14.13;;
45944;SDS011;31655;48.972;10.686;2023-12-07T13:19:18;25.10;;;14.15;;
45944;SDS011;31655;48.972;10.686;2023-12-07T13:21:45;27.40;;;14.70;;
45944;SDS011;31655;48.972;10.686;2023-12-07T13:24:10;30.88;;;17.27;;
45944;SDS011;31655;48.972;10.686;2023-12-07T13:26:38;26.60;;;16.33;;
45944;SDS011;31655;48.972;10.686;2023-12-07T13:29:04;25.98;;;15.57;;
45944;SDS011;31655;48.972;10.686;2023-12-07T13:31:30;25.35;;;16.00;;
45944;SDS011;31655;48.972;10.686;2023-12-07T13:33:55;27.95;;;14.50;;
45944;SDS011;31655;48.972;10.686;2023-12-07T13:36:21;24.42;;;14.10;;
45944;SDS011;31655;48.972;10.686;2023-12-07T13:38:50;28.80;;;15.50;;
45944;SDS011;31655;48.972;10.686;2023-12-07T13:41:16;21.55;;;12.63;;
45944;SDS011;31655;48.972;10.686;2023-12-07T13:43:41;26.67;;;15.35;;
45944;SDS011;31655;48.972;10.686;2023-12-07T13:46:07;29.85;;;16.27;;
45944;SDS011;31655;48.972;10.686;2023-12-07T13:48:34;28.52;;;15.80;;
45944;SDS011;31655;48.972;10.686;2023-12-07T13:50:59;25.13;;;14.15;;
45944;SDS011;31655;48.972;10.686;2023-12-07T13:53:25;42.60;;;22.45;;
45944;SDS011;31655;48.972;10.686;2023-12-07T13:55:50;44.30;;;19.63;;
45944;SDS011;31655;48.972;10.686;2023-12-07T13:58:16;29.17;;;16.42;;
45944;SDS011;31655;48.972;10.686;2023-12-07T14:00:42;22.02;;;12.65;;
45944;SDS011;31655;48.972;10.686;2023-12-07T14:03:12;29.02;;;15.13;;
45944;SDS011;31655;48.972;10.686;2023-12-07T14:05:38;24.52;;;14.90;;
45944;SDS011;31655;48.972;10.686;2023-12-07T14:08:07;31.92;;;16.45;;
45944;SDS011;31655;48.972;10.686;2023-12-07T14:10:33;25.75;;;14.65;;
45944;SDS011;31655;48.972;10.686;2023-12-07T14:12:59;29.65;;;16.35;;